KINK

Winkler County Airport

Wink, Texas, USA
METAR KINK 161553Z AUTO 00000KT 10SM CLR 09/M02 A3016 RMK AO2 SLP201 T00891017
Observed Flight Rules
Nov-16 @ 15:53 UTC (53 minutes ago) Visual Flight Rules
Visibility Clouds
10 miles
  • Clear skies
Temperatures Readings
Current 9°C / 48°F
Dewpoint -2°C / 28°F
Humidity 46%
Altimeter 30.16" Hg
Pressure 1020.1 hPa
Elevation 855
METAR KINK 161553Z AUTO 00000KT 10SM CLR 09/M02 A3016 RMK AO2 SLP201 T00891017
Observed Flight Rules
Nov-16 @ 15:53 UTC
(53 minutes ago)
VFR
Clouds
  • Clear skies
Temperature Dewpoint
9°C / 48°F -2°C / 28°F
Humidity Altimeter Pressure
46% 30.16" Hg 1020.1 hPa